Time;durP1;ratioP1;P1;durP2;ratioP2;P2;SDS_P1;SDS_P2;PMS_P1;PMS_P2;Temp;Humidity;BMP_temperature;BMP_pressure;BME280_temperature;BME280_humidity;BME280_pressure;Samples;Min_cycle;Max_cycle;Signal;HPM_P1;HPM_P2
2024/01/02 00:01:13;;;;;;;1.60;0.90;;;18.10;57.00;;;;;;5036338;28;20116;-65
2024/01/02 00:03:38;;;;;;;1.13;0.77;;;18.10;57.00;;;;;;5039124;28;20033;-65
2024/01/02 00:06:04;;;;;;;1.58;0.85;;;18.00;57.50;;;;;;5038679;28;20481;-65
2024/01/02 00:08:30;;;;;;;1.67;0.80;;;18.00;57.00;;;;;;5037789;28;20084;-64
2024/01/02 00:10:55;;;;;;;1.90;0.90;;;18.00;57.00;;;;;;5034846;28;20052;-65
2024/01/02 00:13:21;;;;;;;1.40;0.77;;;18.10;57.00;;;;;;5036211;28;20445;-72
2024/01/02 00:15:46;;;;;;;2.10;0.90;;;18.00;57.00;;;;;;5035658;28;20109;-72
2024/01/02 00:18:12;;;;;;;1.73;0.90;;;18.00;57.00;;;;;;5038450;28;20032;-71
2024/01/02 00:20:38;;;;;;;1.25;0.77;;;18.00;57.00;;;;;;5038166;28;20026;-71
2024/01/02 00:23:03;;;;;;;1.80;0.90;;;18.00;57.00;;;;;;5036024;28;20056;-72
2024/01/02 00:25:29;;;;;;;1.65;0.80;;;18.10;57.10;;;;;;5034860;28;20482;-71
2024/01/02 00:27:54;;;;;;;2.08;0.88;;;18.00;57.10;;;;;;5038968;28;20052;-71
2024/01/02 00:30:20;;;;;;;1.88;1.00;;;18.00;57.10;;;;;;5035731;28;20438;-72
2024/01/02 00:32:46;;;;;;;0.90;0.70;;;18.00;57.10;;;;;;5037333;28;20037;-66
2024/01/02 00:35:12;;;;;;;1.45;0.80;;;18.10;57.10;;;;;;5038841;28;20052;-64
2024/01/02 00:37:38;;;;;;;1.50;0.80;;;18.10;57.10;;;;;;5038110;28;20068;-65
2024/01/02 00:40:04;;;;;;;1.95;0.82;;;18.10;57.20;;;;;;5034336;28;20549;-65
2024/01/02 00:42:30;;;;;;;1.58;0.70;;;18.00;57.10;;;;;;5038188;28;20026;-64
2024/01/02 00:44:55;;;;;;;1.35;0.80;;;18.00;57.10;;;;;;5042884;28;20032;-65
2024/01/02 00:47:21;;;;;;;1.75;0.82;;;18.00;57.10;;;;;;5040927;28;20094;-64
2024/01/02 00:49:48;;;;;;;1.27;0.73;;;18.10;57.70;;;;;;5042975;28;20075;-64
2024/01/02 00:52:14;;;;;;;1.25;0.80;;;18.10;57.20;;;;;;5039461;28;20099;-71
2024/01/02 00:54:39;;;;;;;0.98;0.77;;;18.10;57.20;;;;;;5035575;28;20057;-72
2024/01/02 00:57:05;;;;;;;2.15;0.70;;;18.00;57.10;;;;;;5039092;28;20583;-72
2024/01/02 00:59:31;;;;;;;1.80;0.80;;;18.00;57.10;;;;;;5039070;28;20120;-72
2024/01/02 01:01:56;;;;;;;1.30;0.80;;;18.00;57.10;;;;;;5039508;28;20032;-72
2024/01/02 01:04:23;;;;;;;1.38;0.73;;;18.00;57.10;;;;;;5042609;28;20034;-73
2024/01/02 01:06:48;;;;;;;1.17;0.70;;;18.10;57.20;;;;;;5039834;28;20568;-72
2024/01/02 01:09:14;;;;;;;1.15;0.70;;;18.10;57.20;;;;;;5036827;28;20124;-72
2024/01/02 01:11:40;;;;;;;2.30;0.90;;;18.10;57.70;;;;;;5040964;28;20108;-72
2024/01/02 01:14:05;;;;;;;1.52;0.80;;;18.10;57.10;;;;;;5041752;28;20025;-71
2024/01/02 01:16:31;;;;;;;1.55;0.80;;;18.00;57.20;;;;;;5038229;28;20474;-72
2024/01/02 01:18:57;;;;;;;1.20;0.70;;;18.00;57.10;;;;;;5041056;28;20039;-72
2024/01/02 01:21:22;;;;;;;0.82;0.60;;;18.10;57.10;;;;;;5040942;28;20077;-64
2024/01/02 01:23:48;;;;;;;0.85;0.50;;;18.00;57.10;;;;;;5041084;28;20025;-64
2024/01/02 01:26:13;;;;;;;1.90;0.80;;;18.00;57.10;;;;;;5038423;28;20048;-66
2024/01/02 01:28:39;;;;;;;1.65;0.80;;;18.10;57.10;;;;;;5041349;28;20034;-65
2024/01/02 01:31:05;;;;;;;1.27;0.70;;;18.00;57.10;;;;;;5040469;28;20036;-66
2024/01/02 01:33:30;;;;;;;1.05;0.60;;;18.10;57.10;;;;;;5039045;28;20033;-64
2024/01/02 01:35:56;;;;;;;1.25;0.80;;;18.10;57.10;;;;;;5021710;28;20026;-65
2024/01/02 01:38:22;;;;;;;1.02;0.70;;;18.00;57.10;;;;;;5042029;28;20097;-65
2024/01/02 01:40:48;;;;;;;1.25;0.80;;;18.10;57.10;;;;;;5038645;28;20021;-65
2024/01/02 01:43:14;;;;;;;1.20;0.70;;;18.10;57.10;;;;;;5040333;28;20048;-65
2024/01/02 01:45:40;;;;;;;1.30;0.80;;;18.00;57.10;;;;;;5040275;28;20029;-64
2024/01/02 01:48:08;;;;;;;1.35;0.70;;;18.00;57.10;;;;;;5036970;28;20464;-66
2024/01/02 01:50:35;;;;;;;1.20;0.70;;;18.10;57.20;;;;;;5041166;28;20040;-65
2024/01/02 01:53:02;;;;;;;2.30;1.17;;;18.10;57.10;;;;;;5040951;28;20035;-65
2024/01/02 01:55:28;;;;;;;1.33;0.70;;;18.00;57.10;;;;;;5036904;28;20363;-65
2024/01/02 01:57:53;;;;;;;1.20;0.70;;;18.10;57.10;;;;;;5040402;28;20074;-65
2024/01/02 02:00:20;;;;;;;1.42;0.80;;;18.10;57.20;;;;;;5040828;28;20061;-63
2024/01/02 02:02:47;;;;;;;1.40;0.60;;;18.00;57.10;;;;;;5040810;28;20481;-64
2024/01/02 02:05:13;;;;;;;0.90;0.65;;;18.00;57.10;;;;;;5039323;28;20025;-65
2024/01/02 02:07:40;;;;;;;1.20;0.80;;;18.10;57.20;;;;;;5040206;28;20025;-65
2024/01/02 02:10:10;;;;;;;1.20;0.70;;;18.00;57.10;;;;;;5038624;28;20449;-65
2024/01/02 02:12:36;;;;;;;0.88;0.60;;;18.00;57.10;;;;;;5040999;28;20041;-65
2024/01/02 02:15:03;;;;;;;1.02;0.65;;;18.00;57.10;;;;;;5043017;28;20033;-65
2024/01/02 02:17:30;;;;;;;1.25;0.80;;;18.10;57.20;;;;;;5039575;28;20104;-63
2024/01/02 02:19:56;;;;;;;1.00;0.70;;;18.10;57.20;;;;;;5040081;28;20148;-64
2024/01/02 02:22:51;;;;;;;1.17;0.70;;;18.00;57.10;;;;;;5039530;28;20026;-64
2024/01/02 02:25:17;;;;;;;1.20;0.70;;;18.10;57.20;;;;;;5038633;28;20021;-65
2024/01/02 02:27:45;;;;;;;1.20;0.63;;;18.00;57.10;;;;;;5037074;28;20026;-64
2024/01/02 02:30:11;;;;;;;0.88;0.73;;;18.10;57.20;;;;;;5039885;28;20036;-64
2024/01/02 02:32:37;;;;;;;1.08;0.60;;;18.00;57.10;;;;;;5037561;28;20026;-64
2024/01/02 02:35:03;;;;;;;1.08;0.57;;;18.00;57.10;;;;;;5037202;28;20025;-64
2024/01/02 02:37:29;;;;;;;1.38;0.85;;;18.00;57.10;;;;;;5035593;28;20033;-63
2024/01/02 02:39:54;;;;;;;1.33;0.80;;;18.10;57.10;;;;;;5038783;28;20026;-64
2024/01/02 02:42:20;;;;;;;1.13;0.75;;;18.00;57.10;;;;;;5037611;28;20025;-63
2024/01/02 02:44:46;;;;;;;0.90;0.77;;;18.00;57.10;;;;;;5037489;28;20037;-63
2024/01/02 02:47:11;;;;;;;0.90;0.60;;;18.00;57.10;;;;;;5039192;28;20037;-63
2024/01/02 02:49:37;;;;;;;1.58;0.80;;;18.10;57.10;;;;;;5039885;28;20067;-64
2024/01/02 02:52:03;;;;;;;1.30;0.70;;;18.10;57.10;;;;;;5037726;28;20051;-64
2024/01/02 02:54:29;;;;;;;0.82;0.60;;;18.00;57.10;;;;;;5038504;28;20038;-63
2024/01/02 02:56:56;;;;;;;1.52;0.68;;;18.10;57.10;;;;;;5036977;28;20104;-64
2024/01/02 02:59:21;;;;;;;1.02;0.70;;;18.00;57.20;;;;;;5038250;28;20053;-65
2024/01/02 03:01:47;;;;;;;1.08;0.70;;;18.00;57.10;;;;;;5037271;28;20390;-65
2024/01/02 03:04:13;;;;;;;1.00;0.75;;;18.10;57.10;;;;;;5036150;28;20110;-63
2024/01/02 03:06:39;;;;;;;1.27;0.70;;;18.10;57.10;;;;;;5038594;28;20045;-64
2024/01/02 03:09:04;;;;;;;1.23;0.80;;;18.00;57.10;;;;;;5039081;28;20047;-64
2024/01/02 03:11:30;;;;;;;1.20;0.80;;;18.00;57.10;;;;;;5036521;28;20030;-66
2024/01/02 03:13:56;;;;;;;1.55;0.70;;;18.00;57.10;;;;;;5040330;28;20029;-65
2024/01/02 03:16:23;;;;;;;0.65;0.55;;;18.10;57.10;;;;;;5037143;28;20500;-65
2024/01/02 03:18:49;;;;;;;1.13;0.60;;;18.10;57.10;;;;;;5039042;28;20056;-65
2024/01/02 03:21:15;;;;;;;1.08;0.70;;;18.00;57.10;;;;;;5039108;28;20472;-64
2024/01/02 03:23:41;;;;;;;0.80;0.50;;;18.10;57.10;;;;;;5040264;28;20071;-65
2024/01/02 03:26:08;;;;;;;1.25;0.70;;;18.00;57.10;;;;;;5035213;28;20033;-65
2024/01/02 03:28:34;;;;;;;0.80;0.60;;;18.00;57.10;;;;;;5036874;28;20505;-65
2024/01/02 03:31:03;;;;;;;0.95;0.60;;;18.00;57.10;;;;;;5039252;28;20036;-65
2024/01/02 03:33:29;;;;;;;0.80;0.63;;;18.00;57.10;;;;;;5038331;28;20108;-65
2024/01/02 03:35:54;;;;;;;1.10;0.70;;;18.00;57.10;;;;;;5038287;28;20506;-65
2024/01/02 03:38:20;;;;;;;0.88;0.60;;;18.00;57.10;;;;;;5038392;28;20508;-64
2024/01/02 03:40:45;;;;;;;0.75;0.60;;;18.00;57.10;;;;;;5035073;28;20026;-65
2024/01/02 03:43:11;;;;;;;0.60;0.60;;;18.00;57.60;;;;;;5038632;28;20017;-70
2024/01/02 03:45:37;;;;;;;1.05;0.55;;;18.00;57.10;;;;;;5037369;28;20456;-71
2024/01/02 03:48:03;;;;;;;1.00;0.60;;;18.00;57.10;;;;;;5038889;28;20057;-70
2024/01/02 03:50:28;;;;;;;0.88;0.60;;;18.00;57.10;;;;;;5039488;28;20028;-70
2024/01/02 03:52:54;;;;;;;1.00;0.52;;;18.00;57.10;;;;;;5038689;28;20121;-70
2024/01/02 03:55:20;;;;;;;1.10;0.70;;;18.00;57.10;;;;;;5038970;28;20049;-70
2024/01/02 03:57:45;;;;;;;1.25;0.70;;;18.00;57.10;;;;;;5033593;28;20044;-70
2024/01/02 04:00:11;;;;;;;1.08;0.60;;;18.00;57.10;;;;;;5038273;28;20025;-70
2024/01/02 04:02:37;;;;;;;1.05;0.70;;;18.00;57.10;;;;;;5037238;28;20047;-64
2024/01/02 04:05:03;;;;;;;1.02;0.70;;;18.00;57.10;;;;;;5035828;28;20041;-64
2024/01/02 04:07:29;;;;;;;0.70;0.57;;;18.00;57.10;;;;;;5038349;28;20689;-65
2024/01/02 04:09:56;;;;;;;1.08;0.68;;;18.00;57.10;;;;;;5037581;28;20061;-64
2024/01/02 04:12:21;;;;;;;1.10;0.60;;;18.10;57.20;;;;;;5034624;28;20029;-64
2024/01/02 04:14:47;;;;;;;1.10;0.70;;;18.00;57.10;;;;;;5036854;28;20033;-65
2024/01/02 04:17:13;;;;;;;0.60;0.50;;;18.00;57.10;;;;;;5053695;28;20033;-64
2024/01/02 04:19:38;;;;;;;0.73;0.60;;;18.00;57.10;;;;;;5037857;28;20105;-64
2024/01/02 04:22:04;;;;;;;0.65;0.60;;;18.00;57.10;;;;;;5038171;28;20059;-64
2024/01/02 04:24:30;;;;;;;1.15;0.65;;;18.00;57.10;;;;;;5037711;28;20068;-64
2024/01/02 04:26:56;;;;;;;0.80;0.65;;;18.00;57.10;;;;;;5034104;28;20378;-63
2024/01/02 04:29:21;;;;;;;0.85;0.60;;;18.00;57.10;;;;;;5035912;28;20108;-63
2024/01/02 04:31:47;;;;;;;1.02;0.60;;;18.00;57.10;;;;;;5036019;28;20096;-64
2024/01/02 04:34:13;;;;;;;0.68;0.57;;;18.00;57.10;;;;;;5036477;28;20435;-65
2024/01/02 04:36:41;;;;;;;0.98;0.60;;;18.00;57.10;;;;;;5036489;28;20357;-63
2024/01/02 04:39:07;;;;;;;1.13;0.60;;;18.00;57.10;;;;;;5037524;28;20036;-63
2024/01/02 04:41:33;;;;;;;0.88;0.60;;;18.00;57.10;;;;;;5035926;28;20365;-63
2024/01/02 04:43:58;;;;;;;1.02;0.60;;;18.00;57.10;;;;;;5036905;28;20029;-65
2024/01/02 04:46:25;;;;;;;0.75;0.60;;;18.00;57.10;;;;;;5037189;28;20049;-64
2024/01/02 04:48:50;;;;;;;0.68;0.50;;;18.00;57.10;;;;;;5033443;28;20108;-65
2024/01/02 04:51:16;;;;;;;1.23;0.70;;;18.00;57.10;;;;;;5037736;28;20517;-63
2024/01/02 04:53:41;;;;;;;1.00;0.60;;;18.00;57.10;;;;;;5035973;28;20044;-64
2024/01/02 04:56:07;;;;;;;0.77;0.60;;;18.00;57.10;;;;;;5035546;28;20030;-63
2024/01/02 04:58:32;;;;;;;0.93;0.60;;;18.00;57.10;;;;;;5036345;28;20030;-64
2024/01/02 05:00:58;;;;;;;0.88;0.50;;;18.00;57.60;;;;;;5037291;28;20599;-64
2024/01/02 05:03:23;;;;;;;0.52;0.50;;;18.00;57.10;;;;;;5039064;28;20071;-65
2024/01/02 05:05:49;;;;;;;1.15;0.60;;;18.00;57.10;;;;;;5036088;28;20381;-64
2024/01/02 05:08:15;;;;;;;0.32;0.32;;;18.00;57.10;;;;;;5035819;28;20029;-64
2024/01/02 05:10:40;;;;;;;1.23;0.93;;;18.00;57.10;;;;;;5038474;28;20037;-64
2024/01/02 05:13:06;;;;;;;0.88;0.60;;;18.00;57.10;;;;;;5034716;28;20048;-68
2024/01/02 05:15:32;;;;;;;0.85;0.60;;;18.00;57.10;;;;;;5039239;28;20460;-69
2024/01/02 05:17:58;;;;;;;0.63;0.47;;;18.00;57.10;;;;;;5037454;28;20063;-69
2024/01/02 05:20:23;;;;;;;1.60;0.65;;;18.00;57.10;;;;;;5037697;28;20330;-68
2024/01/02 05:22:49;;;;;;;0.80;0.60;;;18.00;57.10;;;;;;5037436;28;20945;-69
2024/01/02 05:25:14;;;;;;;0.68;0.52;;;18.00;57.10;;;;;;5036678;28;20114;-69
2024/01/02 05:27:40;;;;;;;0.82;0.60;;;18.00;57.10;;;;;;5034665;28;20048;-69
2024/01/02 05:30:07;;;;;;;0.70;0.60;;;18.00;57.10;;;;;;5040709;28;20017;-68
2024/01/02 05:32:32;;;;;;;0.75;0.70;;;18.00;57.10;;;;;;5040605;28;20025;-65
2024/01/02 05:34:58;;;;;;;0.63;0.50;;;18.00;57.10;;;;;;5054906;28;20029;-65
2024/01/02 05:37:23;;;;;;;1.02;0.55;;;18.00;57.10;;;;;;5054620;28;20021;-64
2024/01/02 05:39:49;;;;;;;0.50;0.47;;;18.00;57.10;;;;;;5040576;28;20033;-64
2024/01/02 05:42:15;;;;;;;0.73;0.60;;;18.00;57.10;;;;;;5036283;28;20515;-65
2024/01/02 05:44:40;;;;;;;0.65;0.50;;;18.00;57.10;;;;;;5037979;28;20044;-66
2024/01/02 05:47:06;;;;;;;1.00;0.50;;;18.00;57.10;;;;;;5037485;28;20659;-65
2024/01/02 05:49:31;;;;;;;0.93;0.50;;;18.00;57.10;;;;;;5041706;28;20039;-65
2024/01/02 05:51:57;;;;;;;1.08;0.68;;;18.00;57.10;;;;;;5054728;28;20041;-65
2024/01/02 05:54:22;;;;;;;0.52;0.50;;;18.00;57.10;;;;;;5036511;28;20502;-65
2024/01/02 05:56:48;;;;;;;0.80;0.60;;;18.00;57.10;;;;;;5037430;28;20107;-65
2024/01/02 05:59:14;;;;;;;1.02;0.70;;;18.00;57.10;;;;;;5041467;28;20025;-65
2024/01/02 06:01:39;;;;;;;0.40;0.40;;;18.00;57.10;;;;;;5038762;28;20488;-65
2024/01/02 06:04:05;;;;;;;0.68;0.50;;;18.00;57.10;;;;;;5040708;28;20454;-70
2024/01/02 06:06:30;;;;;;;0.50;0.50;;;18.00;57.10;;;;;;5042112;28;20033;-70
2024/01/02 06:08:56;;;;;;;0.65;0.50;;;18.00;57.10;;;;;;5040009;28;20069;-69
2024/01/02 06:11:22;;;;;;;0.70;0.60;;;18.00;57.00;;;;;;5038976;28;20116;-70
2024/01/02 06:13:47;;;;;;;0.82;0.55;;;18.00;57.00;;;;;;5035939;28;20381;-70
2024/01/02 06:16:13;;;;;;;0.70;0.60;;;18.00;57.00;;;;;;5040972;28;20076;-70
2024/01/02 06:18:38;;;;;;;0.65;0.50;;;17.90;57.00;;;;;;5037872;28;20026;-70
2024/01/02 06:21:04;;;;;;;0.75;0.50;;;18.00;57.00;;;;;;5039787;28;20036;-69
2024/01/02 06:23:33;;;;;;;0.82;0.60;;;18.00;57.00;;;;;;5040028;28;20059;-69
2024/01/02 06:25:59;;;;;;;0.85;0.60;;;18.00;57.00;;;;;;5037429;28;20053;-70
2024/01/02 06:28:25;;;;;;;0.80;0.60;;;18.00;57.00;;;;;;5036276;28;20064;-70
2024/01/02 06:30:51;;;;;;;0.80;0.60;;;17.90;56.90;;;;;;5039440;28;20060;-69
2024/01/02 06:33:17;;;;;;;0.95;0.57;;;18.00;56.90;;;;;;5039997;28;20030;-69
2024/01/02 06:35:43;;;;;;;0.75;0.50;;;18.00;57.40;;;;;;5055259;28;20025;-70
2024/01/02 06:38:09;;;;;;;0.68;0.50;;;18.00;56.90;;;;;;5036470;28;20764;-70
2024/01/02 06:40:35;;;;;;;0.52;0.50;;;18.00;56.90;;;;;;5039053;28;20035;-70
2024/01/02 06:43:01;;;;;;;0.77;0.60;;;18.00;56.90;;;;;;5035917;28;20412;-64
2024/01/02 06:45:27;;;;;;;0.52;0.50;;;18.00;56.80;;;;;;5037752;28;20029;-64
2024/01/02 06:47:52;;;;;;;0.57;0.50;;;18.00;56.80;;;;;;5039538;28;20087;-64
2024/01/02 06:50:18;;;;;;;0.50;0.50;;;17.90;56.80;;;;;;5039905;28;20459;-65
2024/01/02 06:52:43;;;;;;;0.60;0.55;;;18.00;56.80;;;;;;5040247;28;20059;-64
2024/01/02 06:55:09;;;;;;;0.50;0.50;;;18.00;56.80;;;;;;5040256;28;20079;-66
2024/01/02 06:57:35;;;;;;;0.65;0.50;;;18.00;56.70;;;;;;5037096;28;20102;-64
2024/01/02 07:00:00;;;;;;;0.47;0.47;;;17.90;56.70;;;;;;5037023;28;20022;-64
2024/01/02 07:02:27;;;;;;;0.45;0.40;;;17.90;56.60;;;;;;5038594;28;20060;-63
2024/01/02 07:04:52;;;;;;;0.77;0.65;;;17.90;56.60;;;;;;5038722;28;20529;-64
2024/01/02 07:07:18;;;;;;;0.85;0.57;;;17.90;56.60;;;;;;5036387;28;20036;-64
2024/01/02 07:09:43;;;;;;;0.50;0.50;;;17.90;56.60;;;;;;5038851;28;20476;-64
2024/01/02 07:12:09;;;;;;;0.43;0.43;;;17.90;56.50;;;;;;5034436;28;20067;-66
2024/01/02 07:14:37;;;;;;;0.80;0.60;;;17.90;56.50;;;;;;5035274;28;20029;-64
2024/01/02 07:17:03;;;;;;;0.40;0.40;;;17.90;56.50;;;;;;5037865;28;20533;-65
2024/01/02 07:19:28;;;;;;;0.50;0.40;;;18.00;56.50;;;;;;5037232;28;20029;-64
2024/01/02 07:21:54;;;;;;;0.70;0.50;;;17.90;56.40;;;;;;5039132;28;20025;-65
2024/01/02 07:24:20;;;;;;;0.43;0.40;;;17.90;56.40;;;;;;5038374;28;20024;-64
2024/01/02 07:26:45;;;;;;;0.40;0.30;;;17.90;56.40;;;;;;5037123;28;20061;-65
2024/01/02 07:29:11;;;;;;;0.50;0.45;;;17.90;56.40;;;;;;5036358;28;20130;-64
2024/01/02 07:31:36;;;;;;;0.55;0.50;;;17.90;56.40;;;;;;5038697;28;20033;-64
2024/01/02 07:34:02;;;;;;;0.40;0.40;;;17.90;56.40;;;;;;5037951;28;20037;-65
2024/01/02 07:36:28;;;;;;;0.65;0.43;;;17.90;56.40;;;;;;5038831;28;20056;-63
2024/01/02 07:38:53;;;;;;;0.60;0.50;;;17.90;56.40;;;;;;5038127;28;20029;-63
2024/01/02 07:41:19;;;;;;;0.40;0.40;;;17.90;56.40;;;;;;5036926;28;20030;-65
2024/01/02 07:43:45;;;;;;;0.50;0.50;;;17.90;56.40;;;;;;5036437;28;20025;-65
2024/01/02 07:46:10;;;;;;;0.70;0.50;;;17.90;56.40;;;;;;5037850;28;20033;-64
2024/01/02 07:48:36;;;;;;;0.68;0.40;;;17.90;56.30;;;;;;5038571;28;20481;-64
2024/01/02 07:51:02;;;;;;;0.60;0.40;;;17.90;56.30;;;;;;5038395;28;20374;-63
2024/01/02 07:53:28;;;;;;;0.43;0.43;;;17.90;56.30;;;;;;5037124;28;20099;-63
2024/01/02 07:55:54;;;;;;;0.35;0.35;;;17.90;56.30;;;;;;5036754;28;20029;-66
2024/01/02 07:58:19;;;;;;;0.40;0.40;;;17.90;56.30;;;;;;5037377;28;20126;-65
2024/01/02 08:00:45;;;;;;;0.50;0.50;;;17.90;56.30;;;;;;5036598;28;20507;-64
2024/01/02 08:03:11;;;;;;;0.40;0.40;;;17.90;56.20;;;;;;5037368;28;20041;-65
2024/01/02 08:05:36;;;;;;;1.23;0.50;;;17.90;56.30;;;;;;5037240;28;20501;-64
2024/01/02 08:08:02;;;;;;;0.40;0.40;;;17.90;56.30;;;;;;5039173;28;20021;-64
2024/01/02 08:10:28;;;;;;;0.30;0.30;;;17.90;56.20;;;;;;5036851;28;20361;-65
2024/01/02 08:12:54;;;;;;;0.40;0.40;;;17.90;56.30;;;;;;5036470;28;20025;-66
2024/01/02 08:15:19;;;;;;;0.50;0.50;;;17.90;56.20;;;;;;5036333;28;20033;-63
2024/01/02 08:17:46;;;;;;;0.50;0.50;;;17.90;56.20;;;;;;5039866;28;20025;-64
2024/01/02 08:20:11;;;;;;;0.47;0.47;;;17.90;56.20;;;;;;5036412;28;20325;-64
2024/01/02 08:22:37;;;;;;;0.38;0.38;;;17.90;56.20;;;;;;5037238;28;20029;-67
2024/01/02 08:25:03;;;;;;;0.40;0.40;;;17.90;56.20;;;;;;5037715;28;20067;-68
2024/01/02 08:27:29;;;;;;;0.52;0.40;;;17.90;56.10;;;;;;5038407;28;20094;-67
2024/01/02 08:29:54;;;;;;;0.43;0.40;;;17.90;56.10;;;;;;5036047;28;20025;-68
2024/01/02 08:32:21;;;;;;;0.60;0.50;;;17.90;56.10;;;;;;5036005;28;20461;-68
2024/01/02 08:34:47;;;;;;;0.30;0.30;;;17.80;56.00;;;;;;5035616;28;20461;-68
2024/01/02 08:37:13;;;;;;;0.40;0.40;;;17.90;56.10;;;;;;5037076;28;20430;-67
2024/01/02 08:39:39;;;;;;;0.43;0.43;;;17.90;56.00;;;;;;5038230;28;20048;-68
2024/01/02 08:42:05;;;;;;;0.40;0.40;;;17.90;56.00;;;;;;5038874;28;20864;-64
2024/01/02 08:44:30;;;;;;;0.60;0.50;;;17.80;56.00;;;;;;5035556;28;20049;-65
2024/01/02 08:46:56;;;;;;;0.40;0.40;;;17.80;56.00;;;;;;5037609;28;20490;-64
2024/01/02 08:49:21;;;;;;;0.73;0.60;;;17.80;55.90;;;;;;5035484;28;20029;-63
2024/01/02 08:51:47;;;;;;;0.40;0.38;;;17.80;55.90;;;;;;5034933;28;20132;-64
2024/01/02 08:54:13;;;;;;;0.40;0.40;;;17.80;55.80;;;;;;5038013;28;20038;-64
2024/01/02 08:56:38;;;;;;;0.40;0.40;;;17.80;55.80;;;;;;5034838;28;20029;-63
2024/01/02 08:59:04;;;;;;;0.35;0.35;;;17.80;55.80;;;;;;5035279;28;20079;-64
2024/01/02 09:01:30;;;;;;;0.40;0.40;;;17.80;55.90;;;;;;5038212;28;20057;-65
2024/01/02 09:03:55;;;;;;;0.50;0.40;;;17.80;55.90;;;;;;5037300;28;20473;-63
2024/01/02 09:06:21;;;;;;;0.50;0.45;;;17.80;55.90;;;;;;5041341;28;20862;-64
2024/01/02 09:08:47;;;;;;;0.40;0.40;;;17.80;55.90;;;;;;5039652;28;20040;-63
2024/01/02 09:11:13;;;;;;;0.22;0.22;;;17.80;55.80;;;;;;5041830;28;20485;-64
2024/01/02 09:13:38;;;;;;;0.45;0.45;;;17.90;55.90;;;;;;5036914;28;20159;-69
2024/01/02 09:16:06;;;;;;;0.52;0.47;;;17.80;55.80;;;;;;5039787;28;20170;-68
2024/01/02 09:18:31;;;;;;;0.40;0.40;;;17.80;55.90;;;;;;5038399;28;20017;-69
2024/01/02 09:20:57;;;;;;;0.40;0.40;;;17.80;55.90;;;;;;5040401;28;20146;-68
2024/01/02 09:23:23;;;;;;;0.47;0.47;;;17.80;55.90;;;;;;5038336;28;20032;-69
2024/01/02 09:25:50;;;;;;;0.40;0.30;;;17.80;55.90;;;;;;5039678;28;20029;-69
2024/01/02 09:28:17;;;;;;;0.30;0.30;;;17.80;55.90;;;;;;5037527;28;20362;-67
2024/01/02 09:30:43;;;;;;;0.40;0.40;;;17.80;55.90;;;;;;5041247;28;20397;-67
2024/01/02 09:33:10;;;;;;;0.40;0.40;;;17.80;55.90;;;;;;5039941;28;20039;-64
2024/01/02 09:35:36;;;;;;;0.40;0.40;;;17.80;55.90;;;;;;5041222;28;20517;-63
2024/01/02 09:38:05;;;;;;;0.30;0.30;;;17.80;55.90;;;;;;5040513;28;20107;-63
2024/01/02 09:41:01;;;;;;;0.40;0.40;;;17.80;55.90;;;;;;5040781;28;20021;-64
2024/01/02 09:43:55;;;;;;;0.60;0.50;;;17.80;55.90;;;;;;5037328;28;20104;-65
2024/01/02 09:46:38;;;;;;;0.40;0.40;;;17.80;55.90;;;;;;5039833;28;20057;-63
2024/01/02 09:49:07;;;;;;;0.45;0.40;;;17.80;55.90;;;;;;5040109;28;20507;-64
2024/01/02 09:52:00;;;;;;;0.65;0.50;;;17.80;55.90;;;;;;5040752;28;20029;-64
2024/01/02 09:54:50;;;;;;;0.75;0.57;;;17.80;55.90;;;;;;5040436;28;20029;-69
2024/01/02 09:57:32;;;;;;;0.38;0.30;;;17.80;56.00;;;;;;5040833;28;20100;-69
2024/01/02 10:00:42;;;;;;;0.40;0.40;;;17.80;55.90;;;;;;5037525;28;20099;-69
2024/01/02 10:03:14;;;;;;;0.50;0.50;;;17.80;55.90;;;;;;5040020;28;20484;-69
2024/01/02 10:05:55;;;;;;;0.50;0.50;;;17.80;56.00;;;;;;5039172;28;20040;-68
2024/01/02 10:08:44;;;;;;;0.40;0.40;;;17.80;56.00;;;;;;5038138;28;20067;-69
2024/01/02 10:11:36;;;;;;;0.43;0.40;;;17.80;55.90;;;;;;5038049;28;20037;-68
2024/01/02 10:14:28;;;;;;;0.30;0.30;;;17.80;56.00;;;;;;5035895;28;20030;-69
2024/01/02 10:17:05;;;;;;;0.40;0.40;;;17.80;56.00;;;;;;5035683;28;20541;-68
2024/01/02 10:19:31;;;;;;;0.35;0.35;;;17.80;56.00;;;;;;5037512;28;20014;-68
2024/01/02 10:22:02;;;;;;;0.40;0.40;;;17.80;55.90;;;;;;5040648;28;20028;-64
2024/01/02 10:24:46;;;;;;;0.30;0.30;;;17.80;56.00;;;;;;5053917;28;20040;-66
2024/01/02 10:27:15;;;;;;;0.35;0.35;;;17.80;56.00;;;;;;5039742;28;20022;-64
2024/01/02 10:30:06;;;;;;;0.38;0.38;;;17.80;55.90;;;;;;5035937;28;20029;-63
2024/01/02 10:32:56;;;;;;;0.68;0.40;;;17.80;56.00;;;;;;5040943;28;20056;-63
2024/01/02 10:35:44;;;;;;;0.70;0.40;;;17.80;55.90;;;;;;5038735;28;20029;-64
2024/01/02 10:38:18;;;;;;;0.40;0.40;;;17.80;55.90;;;;;;5038790;28;20032;-63
2024/01/02 10:40:50;;;;;;;0.30;0.30;;;17.80;55.90;;;;;;5039624;28;20027;-64
2024/01/02 10:43:30;;;;;;;0.30;0.30;;;17.80;55.90;;;;;;5038462;28;20087;-63
2024/01/02 10:46:09;;;;;;;0.30;0.30;;;17.80;56.40;;;;;;5038213;28;20045;-63
2024/01/02 10:48:54;;;;;;;0.40;0.40;;;17.70;55.90;;;;;;5039236;28;20029;-63
2024/01/02 10:51:34;;;;;;;0.30;0.30;;;17.80;55.90;;;;;;5037316;28;20406;-63
2024/01/02 10:54:05;;;;;;;0.40;0.40;;;17.80;55.90;;;;;;5039450;28;20493;-63
2024/01/02 10:56:37;;;;;;;0.40;0.32;;;17.80;55.90;;;;;;5038937;28;20473;-64
2024/01/02 10:59:35;;;;;;;0.30;0.30;;;17.70;55.80;;;;;;5034505;28;20045;-64
2024/01/02 11:02:17;;;;;;;0.40;0.40;;;17.80;56.40;;;;;;5036783;28;20017;-68
2024/01/02 11:05:06;;;;;;;0.40;0.40;;;17.70;55.80;;;;;;5037950;28;20021;-68
2024/01/02 11:07:36;;;;;;;0.30;0.30;;;17.80;55.80;;;;;;5036319;28;20504;-68
2024/01/02 11:10:17;;;;;;;0.30;0.30;;;17.80;55.80;;;;;;5038727;28;20036;-68
2024/01/02 11:12:54;;;;;;;0.40;0.40;;;17.80;55.80;;;;;;5039152;28;20555;-68
2024/01/02 11:15:24;;;;;;;0.40;0.40;;;17.70;55.80;;;;;;5034445;28;20057;-68
2024/01/02 11:17:52;;;;;;;0.35;0.35;;;17.80;55.80;;;;;;5037829;28;20441;-68
2024/01/02 11:20:21;;;;;;;0.40;0.40;;;17.70;55.80;;;;;;5037703;28;20030;-69
2024/01/02 11:23:06;;;;;;;0.40;0.40;;;17.80;55.80;;;;;;5037021;28;20036;-69
2024/01/02 11:25:36;;;;;;;0.40;0.40;;;17.70;55.80;;;;;;5039362;28;20025;-69
2024/01/02 11:28:04;;;;;;;0.20;0.20;;;17.70;55.80;;;;;;5038159;28;20028;-67
2024/01/02 11:30:34;;;;;;;0.30;0.30;;;17.70;55.80;;;;;;5033075;28;20088;-68
2024/01/02 11:33:03;;;;;;;0.50;0.40;;;17.80;55.80;;;;;;5040231;28;20361;-63
2024/01/02 11:35:36;;;;;;;0.40;0.40;;;17.70;55.80;;;;;;5037399;28;20035;-63
2024/01/02 11:38:10;;;;;;;0.47;0.40;;;17.80;55.80;;;;;;5038303;28;20033;-62
2024/01/02 11:41:22;;;;;;;0.30;0.30;;;17.70;55.80;;;;;;5038477;28;20079;-62
2024/01/02 11:43:53;;;;;;;0.47;0.30;;;17.70;55.80;;;;;;5027003;28;20105;-65
2024/01/02 11:46:23;;;;;;;0.40;0.40;;;17.70;55.80;;;;;;5036577;28;20037;-62
2024/01/02 11:49:16;;;;;;;0.30;0.30;;;17.70;55.80;;;;;;5038385;28;20017;-64
2024/01/02 11:51:55;;;;;;;0.40;0.40;;;17.70;55.80;;;;;;5037867;28;20074;-62
2024/01/02 11:54:54;;;;;;;0.30;0.30;;;17.70;55.80;;;;;;5039567;28;20024;-67
2024/01/02 11:57:31;;;;;;;0.30;0.30;;;17.70;55.80;;;;;;5036423;28;20452;-67
2024/01/02 12:00:06;;;;;;;0.30;0.30;;;17.70;55.80;;;;;;5035653;28;20047;-68
2024/01/02 12:02:47;;;;;;;0.40;0.40;;;17.70;55.80;;;;;;5035625;28;20021;-68
2024/01/02 12:05:19;;;;;;;0.30;0.30;;;17.70;55.80;;;;;;5037177;28;20028;-68
2024/01/02 12:07:49;;;;;;;0.30;0.30;;;17.70;55.80;;;;;;5037946;28;20021;-68
2024/01/02 12:10:18;;;;;;;0.38;0.38;;;17.70;55.80;;;;;;5037290;28;20572;-69
2024/01/02 12:12:54;;;;;;;0.30;0.30;;;17.70;55.80;;;;;;5037016;28;20053;-64
2024/01/02 12:15:30;;;;;;;0.40;0.40;;;17.70;55.80;;;;;;5034555;28;20188;-64
2024/01/02 12:18:01;;;;;;;0.28;0.28;;;17.70;55.70;;;;;;5035695;28;20163;-63
2024/01/02 12:20:35;;;;;;;0.50;0.40;;;17.70;55.70;;;;;;5036230;28;20382;-63
2024/01/02 12:23:00;;;;;;;0.93;0.40;;;17.70;55.70;;;;;;5038647;28;20025;-63
2024/01/02 12:25:26;;;;;;;0.30;0.30;;;17.70;55.70;;;;;;5038290;28;20033;-63
2024/01/02 12:27:54;;;;;;;0.30;0.30;;;17.70;56.20;;;;;;5038355;28;20065;-64
2024/01/02 12:30:36;;;;;;;0.32;0.30;;;17.70;55.70;;;;;;5034392;28;20048;-62
2024/01/02 12:33:19;;;;;;;0.50;0.35;;;17.70;55.70;;;;;;5037549;28;20400;-63
2024/01/02 12:35:47;;;;;;;0.50;0.40;;;17.70;55.70;;;;;;5036383;28;20048;-64
2024/01/02 12:38:18;;;;;;;0.30;0.30;;;17.70;55.70;;;;;;5038451;28;20112;-62
2024/01/02 12:40:48;;;;;;;0.30;0.30;;;17.80;55.70;;;;;;5042765;28;20032;-64
2024/01/02 12:43:21;;;;;;;0.40;0.40;;;17.80;55.70;;;;;;5041781;28;20473;-64
2024/01/02 12:45:57;;;;;;;0.20;0.20;;;17.80;55.70;;;;;;5040842;28;20036;-63
2024/01/02 12:48:26;;;;;;;1.00;0.30;;;17.80;55.70;;;;;;5041253;28;20067;-63
2024/01/02 12:50:54;;;;;;;0.30;0.30;;;17.80;55.70;;;;;;5040204;28;20032;-64
2024/01/02 12:53:24;;;;;;;0.30;0.30;;;17.80;55.60;;;;;;5041177;28;20047;-64
2024/01/02 12:55:55;;;;;;;0.30;0.30;;;17.80;55.70;;;;;;5041138;28;20025;-64